Time;durP1;ratioP1;P1;durP2;ratioP2;P2;SDS_P1;SDS_P2;PMS_P1;PMS_P2;Temp;Humidity;BMP_temperature;BMP_pressure;BME280_temperature;BME280_humidity;BME280_pressure;Samples;Min_cycle;Max_cycle;Signal;HPM_P1;HPM_P2
2022/08/10 00:00:21;;;;;;;8.95;3.40;;;15.10;99.90;;;;;;5047764;28;20045;-79
2022/08/10 00:02:57;;;;;;;4.50;4.07;;;15.10;99.90;;;;;;5039210;28;20040;-81
2022/08/10 00:05:24;;;;;;;5.93;3.60;;;15.20;99.90;;;;;;5043665;28;20036;-77
2022/08/10 00:07:51;;;;;;;6.38;3.97;;;15.10;99.90;;;;;;5043887;28;20049;-78
2022/08/10 00:10:18;;;;;;;6.95;3.75;;;15.20;99.90;;;;;;5054796;28;20072;-78
2022/08/10 00:12:44;;;;;;;5.10;3.65;;;15.10;99.90;;;;;;5053193;28;20055;-78
2022/08/10 00:15:15;;;;;;;5.88;4.20;;;15.10;99.90;;;;;;5052017;28;20430;-78
2022/08/10 00:17:40;;;;;;;4.68;4.38;;;15.10;99.90;;;;;;5053403;28;20049;-78
2022/08/10 00:20:07;;;;;;;4.82;4.20;;;15.00;99.90;;;;;;5051302;28;20040;-78
2022/08/10 00:22:32;;;;;;;5.90;4.20;;;15.10;99.90;;;;;;5047964;28;20044;-81
2022/08/10 00:24:59;;;;;;;4.72;4.03;;;15.00;99.90;;;;;;5052196;28;20150;-80
2022/08/10 00:27:28;;;;;;;6.85;4.00;;;15.00;99.90;;;;;;5051690;28;20040;-78
2022/08/10 00:29:54;;;;;;;5.40;4.15;;;15.00;99.90;;;;;;5048890;28;20136;-79
2022/08/10 00:32:20;;;;;;;6.95;4.65;;;15.00;99.90;;;;;;5055991;28;20033;-78
2022/08/10 00:34:46;;;;;;;5.55;4.22;;;14.90;99.90;;;;;;5053105;28;20117;-78
2022/08/10 00:37:13;;;;;;;4.72;4.22;;;14.90;99.90;;;;;;5055196;28;20106;-78
2022/08/10 00:39:39;;;;;;;4.72;4.25;;;14.90;99.90;;;;;;5051938;28;20114;-81
2022/08/10 00:42:07;;;;;;;5.38;4.30;;;14.80;99.90;;;;;;5042435;28;20036;-79
2022/08/10 00:44:33;;;;;;;7.25;4.35;;;14.80;99.90;;;;;;5041213;28;20059;-81
2022/08/10 00:46:59;;;;;;;4.18;3.88;;;14.80;99.90;;;;;;5045744;28;20044;-82
2022/08/10 00:49:26;;;;;;;4.70;4.28;;;14.90;99.90;;;;;;5044302;28;20151;-77
2022/08/10 00:51:52;;;;;;;5.05;4.55;;;14.80;99.90;;;;;;5044721;28;20049;-78
2022/08/10 00:54:18;;;;;;;4.90;4.50;;;14.80;99.90;;;;;;5039181;28;20049;-79
2022/08/10 00:56:44;;;;;;;5.10;4.63;;;14.70;99.90;;;;;;5043964;28;20498;-78
2022/08/10 00:59:10;;;;;;;5.50;5.00;;;14.70;99.90;;;;;;5043691;28;20037;-81
2022/08/10 01:01:35;;;;;;;5.43;4.95;;;14.70;99.90;;;;;;5045031;28;20139;-78
2022/08/10 01:04:03;;;;;;;5.25;4.78;;;14.70;99.90;;;;;;5040616;28;20552;-79
2022/08/10 01:06:46;;;;;;;5.88;5.32;;;14.70;99.90;;;;;;5046832;28;21806;-81
2022/08/10 01:09:25;;;;;;;5.70;4.65;;;14.70;99.90;;;;;;5041477;28;20442;-79
2022/08/10 01:12:02;;;;;;;7.15;4.50;;;14.60;99.90;;;;;;5045801;28;20079;-78
2022/08/10 01:14:54;;;;;;;6.75;4.57;;;14.60;99.90;;;;;;5048150;28;20079;-77
2022/08/10 01:17:37;;;;;;;6.10;4.95;;;14.50;99.90;;;;;;5046343;28;20570;-77
2022/08/10 01:20:21;;;;;;;5.78;5.30;;;14.60;99.90;;;;;;5040829;28;20124;-80
2022/08/10 01:23:07;;;;;;;5.88;5.05;;;14.60;99.90;;;;;;5046633;28;20029;-77
2022/08/10 01:25:44;;;;;;;7.72;6.20;;;14.60;99.90;;;;;;5044241;28;20036;-79
2022/08/10 01:28:19;;;;;;;7.05;6.35;;;14.60;99.90;;;;;;5043059;28;20049;-81
2022/08/10 01:30:47;;;;;;;7.80;6.93;;;14.60;99.90;;;;;;5049168;28;20138;-77
2022/08/10 01:33:34;;;;;;;7.97;7.07;;;14.50;99.90;;;;;;5044209;28;20535;-77
2022/08/10 01:36:06;;;;;;;8.23;7.43;;;14.50;99.90;;;;;;5042487;28;20098;-79
2022/08/10 01:38:37;;;;;;;6.78;6.15;;;14.50;99.90;;;;;;5042987;28;20522;-77
2022/08/10 01:41:09;;;;;;;8.52;6.40;;;14.50;99.90;;;;;;5043011;28;20037;-78
2022/08/10 01:43:42;;;;;;;7.43;6.70;;;14.50;99.90;;;;;;5048366;28;20057;-78
2022/08/10 01:46:09;;;;;;;7.57;6.88;;;14.50;99.90;;;;;;5047136;28;20486;-78
2022/08/10 01:48:40;;;;;;;7.57;6.78;;;14.40;99.90;;;;;;5043261;28;20052;-79
2022/08/10 01:51:48;;;;;;;8.82;7.43;;;14.40;99.90;;;;;;5044186;28;20052;-77
2022/08/10 01:54:19;;;;;;;8.57;7.30;;;14.40;99.90;;;;;;5038088;28;20050;-78
2022/08/10 01:56:47;;;;;;;9.52;8.45;;;14.40;99.90;;;;;;5022916;28;20074;-77
2022/08/10 01:59:22;;;;;;;9.45;8.48;;;14.40;99.90;;;;;;5049762;28;20060;-79
2022/08/10 02:01:52;;;;;;;9.97;7.83;;;14.40;99.90;;;;;;5027635;28;20040;-79
2022/08/10 02:04:19;;;;;;;9.40;8.40;;;14.40;99.90;;;;;;5047782;28;20044;-78
2022/08/10 02:06:49;;;;;;;9.13;8.23;;;14.40;99.90;;;;;;5046972;28;20047;-77
2022/08/10 02:09:25;;;;;;;9.63;8.30;;;14.40;99.90;;;;;;5047328;28;20101;-77
2022/08/10 02:11:52;;;;;;;9.82;8.85;;;14.40;99.90;;;;;;5044598;28;20044;-79
2022/08/10 02:14:19;;;;;;;9.38;8.43;;;14.40;99.90;;;;;;5045702;28;20085;-77
2022/08/10 02:16:49;;;;;;;9.32;8.32;;;14.40;99.90;;;;;;5045524;28;20036;-77
2022/08/10 02:19:18;;;;;;;11.68;8.93;;;14.40;99.90;;;;;;5032338;28;20067;-77
2022/08/10 02:21:47;;;;;;;10.73;9.38;;;14.40;99.90;;;;;;5044623;28;20089;-80
2022/08/10 02:24:14;;;;;;;12.75;9.15;;;14.40;99.90;;;;;;5047489;28;20037;-77
2022/08/10 02:26:42;;;;;;;10.20;9.20;;;14.40;99.90;;;;;;5028870;28;20078;-81
2022/08/10 02:29:14;;;;;;;11.32;10.25;;;14.40;99.90;;;;;;5045954;28;20467;-80
2022/08/10 02:31:43;;;;;;;11.32;10.23;;;14.30;99.90;;;;;;5042419;28;22072;-81
2022/08/10 02:34:13;;;;;;;12.48;10.30;;;14.30;99.90;;;;;;5044989;28;20037;-78
2022/08/10 02:36:46;;;;;;;12.98;10.85;;;14.30;99.90;;;;;;5045749;28;20037;-77
2022/08/10 02:39:15;;;;;;;12.82;11.20;;;14.30;99.90;;;;;;5050791;28;20720;-78
2022/08/10 02:41:50;;;;;;;13.63;10.10;;;14.30;99.90;;;;;;5043883;28;20048;-79
2022/08/10 02:44:37;;;;;;;11.27;10.07;;;14.30;99.90;;;;;;5045506;28;20078;-78
2022/08/10 02:47:11;;;;;;;11.02;9.93;;;14.30;99.90;;;;;;5028220;28;20045;-77
2022/08/10 02:49:50;;;;;;;11.10;10.10;;;14.30;99.90;;;;;;5044987;28;20441;-81
2022/08/10 02:52:30;;;;;;;12.05;10.23;;;14.30;99.90;;;;;;5026224;28;20078;-78
2022/08/10 02:55:06;;;;;;;12.07;10.60;;;14.40;99.90;;;;;;5046662;28;20680;-78
2022/08/10 02:57:37;;;;;;;11.20;10.10;;;14.30;99.90;;;;;;5046394;28;20087;-80
2022/08/10 03:00:06;;;;;;;13.15;10.40;;;14.30;99.90;;;;;;5044247;28;20157;-80
2022/08/10 03:02:35;;;;;;;11.75;10.52;;;14.30;99.90;;;;;;5042787;28;20052;-79
2022/08/10 03:05:08;;;;;;;10.35;9.35;;;14.30;99.90;;;;;;5046012;28;20048;-77
2022/08/10 03:07:44;;;;;;;11.07;9.98;;;14.40;99.90;;;;;;5054124;28;20041;-81
2022/08/10 03:10:15;;;;;;;12.07;10.32;;;14.40;99.90;;;;;;5048227;28;20036;-78
2022/08/10 03:12:42;;;;;;;11.80;10.55;;;14.40;99.90;;;;;;5051998;28;20090;-80
2022/08/10 03:15:11;;;;;;;11.93;10.73;;;14.40;99.90;;;;;;5045416;28;20044;-81
2022/08/10 03:17:38;;;;;;;12.02;10.82;;;14.30;99.90;;;;;;5045850;28;20051;-77
2022/08/10 03:20:05;;;;;;;16.77;10.55;;;14.40;99.90;;;;;;5046760;28;20068;-79
2022/08/10 03:22:33;;;;;;;11.85;10.52;;;14.30;99.90;;;;;;5038900;28;20059;-81
2022/08/10 03:24:59;;;;;;;12.15;10.30;;;14.40;99.90;;;;;;5042746;28;20033;-78
2022/08/10 03:27:25;;;;;;;12.50;10.30;;;14.40;99.90;;;;;;5044714;28;20056;-78
2022/08/10 03:29:51;;;;;;;14.55;11.48;;;14.40;99.90;;;;;;5042294;28;20045;-80
2022/08/10 03:32:18;;;;;;;11.60;10.40;;;14.40;99.90;;;;;;5043422;28;20090;-78
2022/08/10 03:34:44;;;;;;;11.57;10.38;;;14.40;99.90;;;;;;5041012;28;20045;-78
2022/08/10 03:37:09;;;;;;;11.18;10.07;;;14.30;99.90;;;;;;5047257;28;21718;-79
2022/08/10 03:39:35;;;;;;;14.38;10.85;;;14.40;99.90;;;;;;5046151;28;20041;-82
2022/08/10 03:42:04;;;;;;;12.50;11.00;;;14.40;99.90;;;;;;5039215;28;20079;-81
2022/08/10 03:44:32;;;;;;;13.38;11.85;;;14.40;99.90;;;;;;5044234;28;20045;-82
2022/08/10 03:46:59;;;;;;;12.85;11.60;;;14.40;99.90;;;;;;5046698;28;20131;-78
2022/08/10 03:49:26;;;;;;;12.30;11.00;;;14.30;99.90;;;;;;5024247;28;20071;-77
2022/08/10 03:51:53;;;;;;;13.00;11.68;;;14.40;99.90;;;;;;5044417;28;20048;-77
2022/08/10 03:54:20;;;;;;;13.63;11.95;;;14.40;99.90;;;;;;5046014;28;20059;-76
2022/08/10 03:56:46;;;;;;;15.50;11.68;;;14.40;99.90;;;;;;5043560;28;20637;-79
2022/08/10 03:59:13;;;;;;;13.70;12.10;;;14.40;99.90;;;;;;5043380;28;20037;-79
2022/08/10 04:01:44;;;;;;;15.57;12.30;;;14.30;99.90;;;;;;5040852;28;20045;-77
2022/08/10 04:04:10;;;;;;;14.60;12.20;;;14.40;99.90;;;;;;5041881;28;20041;-77
2022/08/10 04:06:36;;;;;;;13.85;12.00;;;14.30;99.90;;;;;;5050366;28;20064;-77
2022/08/10 04:09:03;;;;;;;13.00;11.48;;;14.40;99.90;;;;;;5043103;28;20084;-80
2022/08/10 04:11:29;;;;;;;15.68;11.43;;;14.30;99.90;;;;;;5046252;28;20055;-78
2022/08/10 04:13:55;;;;;;;13.15;11.85;;;14.30;99.90;;;;;;5043352;28;20041;-78
2022/08/10 04:16:20;;;;;;;13.25;11.93;;;14.40;99.90;;;;;;5046211;28;20407;-81
2022/08/10 04:18:46;;;;;;;14.32;12.00;;;14.40;99.90;;;;;;5048543;28;20512;-80
2022/08/10 04:21:18;;;;;;;17.42;13.60;;;14.40;99.90;;;;;;5027440;28;20131;-78
2022/08/10 04:23:48;;;;;;;22.05;13.82;;;14.40;99.90;;;;;;5043257;28;20039;-77
2022/08/10 04:26:14;;;;;;;16.85;12.70;;;14.40;99.90;;;;;;5042643;28;22055;-77
2022/08/10 04:28:41;;;;;;;18.02;13.32;;;14.40;99.90;;;;;;5048803;28;20120;-81
2022/08/10 04:31:08;;;;;;;18.45;13.20;;;14.40;99.90;;;;;;5047492;28;20041;-77
2022/08/10 04:33:38;;;;;;;17.52;13.75;;;14.40;99.90;;;;;;5046097;28;20152;-77
2022/08/10 04:36:05;;;;;;;15.90;13.75;;;14.40;99.90;;;;;;5044206;28;20041;-77
2022/08/10 04:38:32;;;;;;;25.88;14.23;;;14.40;99.90;;;;;;5049679;28;20050;-77
2022/08/10 04:41:00;;;;;;;20.63;14.25;;;14.50;99.90;;;;;;5049958;28;20484;-76
2022/08/10 04:43:25;;;;;;;17.73;13.68;;;14.50;99.90;;;;;;5053504;28;20041;-80
2022/08/10 04:45:51;;;;;;;15.05;12.93;;;14.50;99.90;;;;;;5052972;28;20056;-81
2022/08/10 04:48:23;;;;;;;16.73;13.73;;;14.50;99.90;;;;;;5054653;28;20044;-76
2022/08/10 04:50:48;;;;;;;22.58;14.55;;;14.50;99.90;;;;;;5050887;28;20083;-78
2022/08/10 04:53:14;;;;;;;18.95;13.10;;;14.60;99.90;;;;;;5062792;28;20045;-78
2022/08/10 04:55:40;;;;;;;19.83;15.13;;;14.60;99.90;;;;;;5053300;28;20047;-77
2022/08/10 04:58:05;;;;;;;17.73;13.65;;;14.60;99.90;;;;;;5058283;28;20048;-77
2022/08/10 05:00:31;;;;;;;18.90;13.52;;;14.70;99.90;;;;;;5056578;28;20049;-82
2022/08/10 05:02:56;;;;;;;18.73;14.52;;;14.80;99.90;;;;;;5051666;28;20430;-77
2022/08/10 05:05:22;;;;;;;15.18;13.57;;;14.90;99.90;;;;;;5055567;28;20480;-76
2022/08/10 05:07:47;;;;;;;14.73;12.23;;;15.00;99.90;;;;;;5059794;28;20049;-79
2022/08/10 05:10:13;;;;;;;14.55;13.05;;;15.10;99.90;;;;;;5056125;28;20036;-78
2022/08/10 05:12:39;;;;;;;14.38;12.88;;;15.10;99.90;;;;;;5057312;28;20047;-77
2022/08/10 05:15:13;;;;;;;17.52;12.80;;;15.30;99.90;;;;;;5056502;28;20035;-77
2022/08/10 05:17:41;;;;;;;12.88;11.45;;;15.60;99.90;;;;;;5060940;28;20183;-77
2022/08/10 05:20:09;;;;;;;11.02;9.85;;;16.10;99.90;;;;;;5056454;28;20052;-78
2022/08/10 05:22:40;;;;;;;11.55;10.43;;;16.70;99.90;;;;;;5056135;28;20089;-77
2022/08/10 05:25:08;;;;;;;9.95;8.95;;;17.70;99.90;;;;;;5054667;28;20040;-80
2022/08/10 05:27:34;;;;;;;9.40;8.63;;;18.90;99.90;;;;;;5041572;28;20041;-79
2022/08/10 05:30:00;;;;;;;9.23;8.23;;;19.80;99.90;;;;;;5055716;28;20818;-80
2022/08/10 05:32:26;;;;;;;8.68;7.85;;;20.70;99.90;;;;;;5057262;28;20041;-79
2022/08/10 05:34:51;;;;;;;8.90;8.00;;;21.30;99.90;;;;;;5055428;28;20036;-77
2022/08/10 05:37:18;;;;;;;9.50;8.73;;;22.20;99.90;;;;;;5054942;28;20044;-79
2022/08/10 05:39:46;;;;;;;8.98;8.27;;;22.90;99.90;;;;;;5055359;28;20072;-77
2022/08/10 05:42:12;;;;;;;9.43;8.55;;;23.60;99.90;;;;;;5055937;28;20083;-78
2022/08/10 05:44:38;;;;;;;8.60;7.78;;;24.30;99.90;;;;;;5062757;28;20471;-78
2022/08/10 05:47:05;;;;;;;8.75;7.78;;;24.80;99.90;;;;;;5056888;28;20388;-78
2022/08/10 05:49:31;;;;;;;8.40;7.70;;;25.10;99.90;;;;;;5056171;28;20048;-78
2022/08/10 05:51:56;;;;;;;7.93;7.28;;;25.50;99.90;;;;;;5053445;28;20098;-79
2022/08/10 05:54:24;;;;;;;9.52;7.75;;;26.00;99.90;;;;;;5059379;28;20120;-78
2022/08/10 05:56:50;;;;;;;19.73;8.43;;;26.40;99.90;;;;;;5057913;28;20044;-79
2022/08/10 05:59:16;;;;;;;8.00;7.20;;;26.30;99.90;;;;;;5056343;28;20045;-78
2022/08/10 06:01:44;;;;;;;8.82;8.00;;;26.70;99.90;;;;;;5054664;28;20035;-82
2022/08/10 06:04:16;;;;;;;7.75;7.03;;;27.10;99.90;;;;;;5037759;28;20675;-76
2022/08/10 06:06:46;;;;;;;8.15;7.43;;;27.20;99.90;;;;;;5058396;28;20037;-78
2022/08/10 06:09:14;;;;;;;8.07;7.38;;;27.70;99.90;;;;;;5060256;28;20118;-81
2022/08/10 06:11:41;;;;;;;9.07;7.55;;;27.70;99.90;;;;;;5058837;28;20047;-79
2022/08/10 06:16:53;;;;;;;7.25;6.65;;;28.70;99.90;;;;;;5060604;28;20689;-79
2022/08/10 06:19:19;;;;;;;7.63;6.93;;;28.70;99.90;;;;;;5053494;28;20120;-80
2022/08/10 06:21:46;;;;;;;6.78;6.18;;;29.10;99.90;;;;;;5061129;28;20048;-79
2022/08/10 06:24:16;;;;;;;7.78;6.63;;;28.60;99.90;;;;;;5040396;28;20514;-78
2022/08/10 06:26:42;;;;;;;6.68;6.10;;;28.10;99.90;;;;;;5051764;28;20076;-82
2022/08/10 06:29:13;;;;;;;6.57;5.93;;;27.50;99.90;;;;;;5055158;28;20060;-78
2022/08/10 06:31:46;;;;;;;9.27;6.30;;;26.90;99.90;;;;;;5053196;28;20126;-81
2022/08/10 06:34:13;;;;;;;5.72;5.25;;;25.90;99.90;;;;;;5052854;28;20040;-78
2022/08/10 06:36:42;;;;;;;13.55;6.10;;;25.60;99.90;;;;;;5055142;28;20044;-77
2022/08/10 06:39:08;;;;;;;5.82;5.28;;;25.10;99.90;;;;;;5052253;28;20059;-77
2022/08/10 06:41:38;;;;;;;6.32;5.70;;;24.80;99.90;;;;;;5062337;28;20040;-81
2022/08/10 06:44:13;;;;;;;5.97;5.38;;;24.50;99.90;;;;;;5053357;28;20441;-79
2022/08/10 06:46:42;;;;;;;;;;;24.20;99.90;;;;;;5054737;28;20037;-78
2022/08/10 06:49:09;;;;;;;7.15;5.35;;;23.90;99.90;;;;;;5060195;28;20759;-78
2022/08/10 06:51:38;;;;;;;6.18;4.88;;;24.00;99.90;;;;;;5053655;28;20045;-79
2022/08/10 06:54:06;;;;;;;7.25;4.70;;;24.00;99.90;;;;;;5051862;28;20068;-78
2022/08/10 06:56:37;;;;;;;5.07;4.10;;;24.10;99.90;;;;;;5047964;28;20513;-79
2022/08/10 06:59:14;;;;;;;6.85;5.35;;;24.30;99.90;;;;;;5053771;28;20079;-78
2022/08/10 07:01:42;;;;;;;4.22;3.78;;;24.20;99.90;;;;;;5052917;28;20123;-77
2022/08/10 07:04:17;;;;;;;11.13;3.55;;;24.30;99.90;;;;;;5053919;28;20094;-78
2022/08/10 07:06:45;;;;;;;7.38;3.67;;;24.40;99.90;;;;;;5052119;28;20045;-77
2022/08/10 07:09:14;;;;;;;4.55;3.70;;;24.50;99.90;;;;;;5056744;28;20049;-78
2022/08/10 07:11:43;;;;;;;8.23;4.03;;;24.50;99.90;;;;;;5053787;28;20033;-78
2022/08/10 07:14:11;;;;;;;4.68;3.30;;;24.50;99.90;;;;;;5052711;28;20123;-79
2022/08/10 07:16:41;;;;;;;5.85;3.80;;;24.60;99.90;;;;;;5054498;28;20086;-77
2022/08/10 07:19:08;;;;;;;5.18;3.40;;;24.70;99.90;;;;;;5052981;28;20071;-79
2022/08/10 07:21:36;;;;;;;5.60;3.50;;;24.70;99.90;;;;;;5057255;28;20091;-81
2022/08/10 07:24:06;;;;;;;4.60;3.10;;;24.80;99.90;;;;;;5053920;28;20399;-78
2022/08/10 07:26:35;;;;;;;6.85;3.45;;;24.90;99.90;;;;;;5050562;28;20491;-77
2022/08/10 07:29:01;;;;;;;3.72;2.75;;;25.00;99.90;;;;;;5058917;28;20053;-78
2022/08/10 07:31:27;;;;;;;6.60;3.60;;;24.90;99.90;;;;;;5052617;28;20044;-82
2022/08/10 07:33:54;;;;;;;5.10;2.95;;;24.80;99.90;;;;;;5053538;28;20039;-81
2022/08/10 07:36:22;;;;;;;3.55;3.17;;;24.70;99.90;;;;;;5051217;28;20522;-79
2022/08/10 07:38:52;;;;;;;3.83;3.17;;;24.70;99.90;;;;;;5056049;28;20119;-78
2022/08/10 07:41:21;;;;;;;3.53;2.47;;;24.80;99.90;;;;;;5054608;28;20040;-81
2022/08/10 07:43:48;;;;;;;3.00;2.70;;;24.80;99.90;;;;;;5057175;28;20040;-77
2022/08/10 07:46:15;;;;;;;6.75;2.20;;;25.00;99.90;;;;;;5058093;28;20048;-79
2022/08/10 07:48:49;;;;;;;9.07;3.38;;;25.00;99.90;;;;;;5055382;28;20053;-78
2022/08/10 07:51:18;;;;;;;4.38;2.40;;;25.20;99.90;;;;;;5035001;28;20048;-78
2022/08/10 07:53:49;;;;;;;5.43;2.60;;;25.20;99.90;;;;;;5052233;28;20115;-78
2022/08/10 07:56:15;;;;;;;6.50;2.75;;;25.10;99.90;;;;;;5032422;28;20793;-79
2022/08/10 07:58:47;;;;;;;5.57;2.70;;;25.00;99.90;;;;;;5054828;28;20040;-79
2022/08/10 08:01:15;;;;;;;3.67;2.45;;;24.90;99.90;;;;;;5048174;28;21676;-78
2022/08/10 08:03:43;;;;;;;4.28;2.33;;;24.90;99.90;;;;;;5049870;28;20106;-78
2022/08/10 08:06:09;;;;;;;7.43;2.60;;;24.90;99.90;;;;;;5051404;28;20041;-81
2022/08/10 08:08:37;;;;;;;5.85;2.40;;;25.00;99.90;;;;;;5051654;28;20407;-79
2022/08/10 08:11:04;;;;;;;3.70;2.15;;;25.20;99.90;;;;;;5050088;28;20067;-79
2022/08/10 08:13:31;;;;;;;3.38;2.05;;;25.30;99.90;;;;;;5052503;28;20052;-79
2022/08/10 08:15:57;;;;;;;3.22;1.70;;;25.50;99.90;;;;;;5054898;28;20495;-78
2022/08/10 08:18:23;;;;;;;6.43;2.30;;;25.60;99.90;;;;;;5052269;28;20400;-79
2022/08/10 08:20:50;;;;;;;4.18;2.10;;;25.70;99.90;;;;;;5052578;28;20590;-79
2022/08/10 08:23:16;;;;;;;3.13;1.80;;;25.80;99.90;;;;;;5053452;28;20048;-79
2022/08/10 08:25:44;;;;;;;2.95;1.83;;;26.00;99.90;;;;;;5056239;28;20403;-79
2022/08/10 08:28:10;;;;;;;6.20;2.30;;;26.10;99.90;;;;;;5053631;28;20127;-81
2022/08/10 08:30:38;;;;;;;6.50;2.08;;;26.10;99.90;;;;;;5054931;28;20033;-81
2022/08/10 08:33:05;;;;;;;3.10;2.28;;;26.30;99.90;;;;;;5060316;28;20044;-80
2022/08/10 08:35:48;;;;;;;4.47;2.15;;;26.30;99.90;;;;;;5060489;28;20048;-80
2022/08/10 08:38:15;;;;;;;6.10;1.90;;;26.30;99.90;;;;;;5060705;28;20111;-84
2022/08/10 08:40:46;;;;;;;3.28;1.98;;;26.30;99.90;;;;;;5069212;28;20052;-80
2022/08/10 08:43:26;;;;;;;2.67;1.83;;;26.40;99.90;;;;;;5056639;28;20044;-80
2022/08/10 08:46:11;;;;;;;4.47;2.05;;;26.50;99.90;;;;;;5058142;28;20040;-82
2022/08/10 08:48:55;;;;;;;4.50;1.70;;;26.70;99.90;;;;;;5057019;28;20518;-83
2022/08/10 08:51:36;;;;;;;7.45;1.60;;;26.80;99.90;;;;;;5058751;28;20036;-82
2022/08/10 08:54:35;;;;;;;9.13;1.88;;;26.90;99.90;;;;;;5061947;28;20037;-80
2022/08/10 08:57:25;;;;;;;6.80;2.03;;;27.00;99.90;;;;;;5056059;28;20621;-81
2022/08/10 09:00:00;;;;;;;2.22;1.20;;;27.10;99.90;;;;;;5062933;28;20112;-82
2022/08/10 09:02:50;;;;;;;3.28;1.58;;;27.20;99.90;;;;;;5063961;28;20044;-80
2022/08/10 09:05:24;;;;;;;3.47;1.10;;;27.20;99.90;;;;;;5062879;28;20044;-81
2022/08/10 09:07:57;;;;;;;3.03;1.05;;;27.20;99.90;;;;;;5060573;28;20045;-80
2022/08/10 09:10:54;;;;;;;2.72;1.23;;;27.20;99.90;;;;;;5062515;28;20098;-80
2022/08/10 09:13:29;;;;;;;2.80;1.23;;;27.50;99.90;;;;;;5060249;28;20052;-85
2022/08/10 09:16:33;;;;;;;6.88;1.30;;;27.50;99.90;;;;;;5057985;28;20043;-81
2022/08/10 09:19:11;;;;;;;2.50;1.10;;;27.20;99.90;;;;;;5047209;28;20139;-83
2022/08/10 09:21:56;;;;;;;3.05;1.30;;;27.10;99.80;;;;;;5061609;28;20078;-82
2022/08/10 09:24:40;;;;;;;6.50;1.75;;;27.20;99.90;;;;;;5053742;28;20044;-77
2022/08/10 09:27:13;;;;;;;12.35;1.00;;;27.30;99.90;;;;;;5054050;28;20202;-79
2022/08/10 09:29:56;;;;;;;4.25;1.45;;;27.40;99.90;;;;;;5051191;28;20047;-77
2022/08/10 09:32:56;;;;;;;2.70;0.90;;;27.60;99.90;;;;;;5056672;28;20692;-77
2022/08/10 09:35:43;;;;;;;3.08;0.95;;;27.50;99.90;;;;;;5054806;28;20538;-78
2022/08/10 09:38:36;;;;;;;7.28;0.95;;;27.40;98.70;;;;;;5056578;28;20044;-78
2022/08/10 09:41:31;;;;;;;3.08;0.88;;;27.10;99.90;;;;;;5057819;28;20044;-77
2022/08/10 09:44:21;;;;;;;7.38;1.23;;;27.20;99.70;;;;;;5055143;28;20047;-77
2022/08/10 09:47:12;;;;;;;1.42;0.82;;;27.30;99.60;;;;;;5055488;28;20041;-77
2022/08/10 09:50:16;;;;;;;2.10;0.70;;;27.40;99.00;;;;;;5049625;28;20044;-77
2022/08/10 09:52:58;;;;;;;2.35;0.95;;;27.40;99.40;;;;;;5053378;28;20050;-77
2022/08/10 09:56:01;;;;;;;4.63;0.75;;;27.60;99.00;;;;;;5052532;28;20449;-78
2022/08/10 09:58:52;;;;;;;2.78;1.58;;;27.70;98.50;;;;;;5057832;28;20059;-78
2022/08/10 10:01:26;;;;;;;2.47;0.85;;;27.70;97.90;;;;;;5052774;28;20045;-77
2022/08/10 10:04:35;;;;;;;8.98;0.95;;;27.40;97.20;;;;;;5054697;28;20103;-77
2022/08/10 10:07:32;;;;;;;2.28;0.80;;;27.30;97.40;;;;;;5054845;28;20135;-80
2022/08/10 10:10:18;;;;;;;6.80;1.00;;;27.30;98.00;;;;;;5057347;28;20070;-81
2022/08/10 10:13:02;;;;;;;2.45;0.60;;;27.40;97.80;;;;;;5061284;28;20043;-81
2022/08/10 10:15:47;;;;;;;3.10;0.70;;;27.60;97.90;;;;;;5057692;28;20082;-83
2022/08/10 10:18:27;;;;;;;1.30;0.40;;;27.60;96.80;;;;;;5060997;28;20052;-81
2022/08/10 10:21:08;;;;;;;1.95;0.55;;;27.70;96.90;;;;;;5062398;28;20056;-84
2022/08/10 10:23:54;;;;;;;1.77;0.57;;;27.50;96.20;;;;;;5059422;28;20384;-81
2022/08/10 10:26:25;;;;;;;3.88;0.70;;;27.60;97.60;;;;;;5042820;28;20047;-79
2022/08/10 10:29:15;;;;;;;2.63;1.00;;;27.60;96.80;;;;;;5057757;28;20048;-81
2022/08/10 10:31:54;;;;;;;2.17;0.57;;;27.50;97.60;;;;;;5064075;28;20033;-79
2022/08/10 10:34:29;;;;;;;3.58;0.60;;;27.80;97.50;;;;;;5053789;28;20734;-79
2022/08/10 10:36:55;;;;;;;;;;;27.90;97.10;;;;;;5055678;28;20141;-79
2022/08/10 10:39:23;;;;;;;2.33;0.45;;;27.90;95.90;;;;;;5059492;28;20093;-80
2022/08/10 10:42:13;;;;;;;1.83;0.40;;;27.90;96.10;;;;;;5054496;28;20049;-81
2022/08/10 10:44:49;;;;;;;3.20;0.40;;;27.90;94.70;;;;;;5056783;28;20478;-81
2022/08/10 10:47:58;;;;;;;5.07;1.15;;;27.80;94.80;;;;;;5052819;28;20052;-79
2022/08/10 10:50:33;;;;;;;2.42;0.70;;;27.90;94.70;;;;;;5054501;28;20086;-79
2022/08/10 10:53:08;;;;;;;5.60;0.60;;;28.00;95.10;;;;;;5057017;28;20104;-80
2022/08/10 10:55:40;;;;;;;3.60;0.65;;;27.70;94.10;;;;;;5053279;28;20029;-80
2022/08/10 10:58:35;;;;;;;6.13;0.55;;;27.60;93.70;;;;;;5054027;28;20076;-79
2022/08/10 11:01:17;;;;;;;1.60;0.47;;;27.60;94.10;;;;;;5053898;28;20076;-79
2022/08/10 11:04:03;;;;;;;2.00;0.50;;;27.60;94.20;;;;;;5052646;28;20080;-79
2022/08/10 11:06:29;;;;;;;4.63;1.10;;;27.70;94.50;;;;;;5050495;28;20071;-81
2022/08/10 11:09:06;;;;;;;1.92;1.02;;;27.90;94.80;;;;;;5057062;28;20068;-80
2022/08/10 11:11:36;;;;;;;13.55;1.05;;;28.10;94.30;;;;;;5056868;28;20488;-79
2022/08/10 11:14:36;;;;;;;1.88;0.82;;;28.00;94.70;;;;;;5055264;28;20048;-79
2022/08/10 11:17:16;;;;;;;3.58;0.50;;;28.00;95.10;;;;;;5055774;28;20072;-80
2022/08/10 11:20:01;;;;;;;4.88;0.52;;;28.10;94.50;;;;;;5056339;28;20060;-79
2022/08/10 11:22:31;;;;;;;2.33;0.80;;;28.20;93.40;;;;;;5053024;28;20036;-79
2022/08/10 11:25:05;;;;;;;4.50;0.60;;;28.50;93.60;;;;;;5057425;28;20040;-79
2022/08/10 11:28:00;;;;;;;1.65;0.50;;;28.70;93.90;;;;;;5050324;28;20132;-80
2022/08/10 11:30:47;;;;;;;2.27;0.50;;;28.70;93.50;;;;;;5037087;28;20144;-79
2022/08/10 11:33:18;;;;;;;3.95;0.85;;;28.60;92.70;;;;;;5051061;28;20049;-81
2022/08/10 11:35:52;;;;;;;4.35;0.70;;;28.60;92.50;;;;;;5056269;28;20044;-79
2022/08/10 11:38:48;;;;;;;3.37;0.67;;;28.40;92.70;;;;;;5053119;28;20059;-79
2022/08/10 11:41:37;;;;;;;2.58;0.70;;;28.40;93.40;;;;;;5057070;28;20329;-79
2022/08/10 11:44:09;;;;;;;3.67;0.60;;;28.50;92.00;;;;;;5052446;28;20123;-79
2022/08/10 11:46:41;;;;;;;1.88;0.50;;;28.30;92.80;;;;;;5056893;28;20040;-79
2022/08/10 11:49:20;;;;;;;2.92;0.93;;;28.40;92.90;;;;;;5050429;28;20040;-78
2022/08/10 11:51:58;;;;;;;3.35;0.50;;;28.40;92.10;;;;;;5038042;28;20055;-79
2022/08/10 11:54:36;;;;;;;4.50;0.95;;;28.40;92.70;;;;;;5057618;28;20186;-79
2022/08/10 11:57:01;;;;;;;5.88;0.60;;;28.50;93.40;;;;;;5053596;28;20491;-79
2022/08/10 12:02:20;;;;;;;2.53;0.60;;;28.40;92.40;;;;;;5057634;28;20504;-79
2022/08/10 12:04:50;;;;;;;2.28;0.50;;;28.20;92.00;;;;;;5054577;28;20110;-81
2022/08/10 12:07:17;;;;;;;3.47;0.73;;;28.20;91.80;;;;;;5057172;28;20507;-80
2022/08/10 12:09:44;;;;;;;1.17;0.40;;;28.20;92.20;;;;;;5053182;28;20075;-80
2022/08/10 12:12:10;;;;;;;2.15;0.57;;;28.40;92.30;;;;;;5055416;28;20090;-80
2022/08/10 12:15:01;;;;;;;3.35;0.50;;;28.30;92.30;;;;;;5045108;28;20077;-82
2022/08/10 12:17:36;;;;;;;1.30;0.35;;;28.40;90.80;;;;;;5054649;28;20159;-79
2022/08/10 12:20:11;;;;;;;1.98;0.63;;;28.20;90.30;;;;;;5050363;28;20040;-80
2022/08/10 12:22:53;;;;;;;1.30;0.50;;;28.10;91.10;;;;;;5056690;28;20103;-81
2022/08/10 12:25:40;;;;;;;2.65;0.47;;;28.20;92.00;;;;;;5052728;28;20048;-79
2022/08/10 12:28:15;;;;;;;4.57;0.52;;;28.30;92.10;;;;;;5054835;28;20048;-80
2022/08/10 12:30:43;;;;;;;;;;;28.20;90.50;;;;;;5057290;28;20142;-79
2022/08/10 12:33:18;;;;;;;4.63;0.80;;;28.20;90.70;;;;;;5056848;28;19920;-79
2022/08/10 12:35:55;;;;;;;0.60;0.50;;;28.40;90.60;;;;;;5049204;28;20118;-79
2022/08/10 12:38:23;;;;;;;3.25;0.50;;;28.20;90.00;;;;;;5050609;28;20048;-79
2022/08/10 12:41:17;;;;;;;2.75;0.40;;;28.30;91.10;;;;;;5054699;28;20182;-81
2022/08/10 12:43:49;;;;;;;1.88;0.40;;;28.30;91.30;;;;;;5053385;28;20083;-79
2022/08/10 12:46:27;;;;;;;1.10;0.70;;;28.30;90.90;;;;;;5041415;28;20036;-79
2022/08/10 12:49:22;;;;;;;2.25;0.40;;;28.20;90.20;;;;;;5054143;28;20089;-79
2022/08/10 12:52:10;;;;;;;1.75;0.50;;;28.10;89.40;;;;;;5055674;28;20179;-79
2022/08/10 12:54:36;;;;;;;3.53;0.60;;;28.20;88.80;;;;;;5056604;28;20036;-79
2022/08/10 12:57:11;;;;;;;1.67;0.40;;;28.10;88.20;;;;;;5038413;28;20140;-78
2022/08/10 12:59:41;;;;;;;3.97;1.00;;;28.00;88.80;;;;;;5049658;28;20036;-79
2022/08/10 13:02:12;;;;;;;2.88;0.50;;;27.90;88.70;;;;;;5054811;28;20116;-79
2022/08/10 13:04:41;;;;;;;2.35;0.60;;;27.90;89.50;;;;;;5049900;28;20105;-79
2022/08/10 13:07:07;;;;;;;2.65;0.70;;;28.00;90.00;;;;;;5053070;28;20048;-80
2022/08/10 13:09:34;;;;;;;4.90;0.80;;;28.20;89.60;;;;;;5054915;28;20041;-80
2022/08/10 13:12:04;;;;;;;0.85;0.40;;;28.20;90.20;;;;;;5058967;28;20086;-81
2022/08/10 13:14:39;;;;;;;0.98;0.50;;;28.30;89.20;;;;;;5053235;28;20037;-79
2022/08/10 13:17:07;;;;;;;4.47;0.50;;;28.30;90.10;;;;;;5055498;28;20052;-79